Flight Track Log - Related Links

Times and Time Zones

All times are in EDT time to prevent confusion due to time zone crossing. See the MTN8131 flight status page for this flight to view local times or setup timezone preferences in your user account.

Time Position Orientation Groundspeed Altitude Reporting Facility
EDT Latitude Longitude Course Direction KTS MPH feet Rate Location/Type
Fri 05:28:21 PM 18.4500 -65.9833 317° Northwest 110 127 1,200  Level San Juan Center
Fri 05:29:21 PM 18.4833 -66.0167 298° West 130 150 2,100 900 Climbing San Juan Center
Fri 05:30:21 PM 18.5000 -66.0500 223° Southwest 120 138 3,000 942 Climbing San Juan Center
Fri 05:31:22 PM 18.4833 -66.0667 180° South 110 127 4,000 942 Climbing San Juan Center
Fri 05:32:22 PM 18.4500 -66.0667 205° Southwest 110 127 4,900 850 Climbing San Juan Center
Fri 05:33:22 PM 18.4167 -66.0833 205° Southwest 120 138 5,700 545 Climbing San Juan Center
Fri 05:34:23 PM 18.3833 -66.1000 205° Southwest 140 161 6,000 149 Climbing San Juan Center
Fri 05:35:23 PM 18.3500 -66.1167 205° Southwest 150 173 6,000  Level San Juan Center
Fri 05:36:23 PM 18.3167 -66.1333 224° Southwest 150 173 6,000  Level San Juan Center
Fri 05:37:24 PM 18.2833 -66.1667 224° Southwest 160 184 6,000  Level San Juan Center
Fri 05:38:24 PM 18.2500 -66.2000 242° Southwest 150 173 6,000 50 Level San Juan Center
Fri 05:39:24 PM 18.2333 -66.2333 205° Southwest 140 161 6,100 496 Climbing San Juan Center
Fri 05:40:25 PM 18.2000 -66.2500 224° Southwest 120 138 7,000 446 Climbing San Juan Center
Fri 05:41:25 PM 18.1667 -66.2833 224° Southwest 160 184 7,000  Level San Juan Center
Fri 05:42:25 PM 18.1333 -66.3167 224° Southwest 170 196 7,000  Level San Juan Center
Fri 05:43:26 PM 18.1000 -66.3500 205° Southwest 160 184 7,000  Level San Juan Center
Fri 05:44:26 PM 18.0667 -66.3667 224° Southwest 150 173 7,000  Level San Juan Center
Fri 05:45:26 PM 18.0333 -66.4000 242° Southwest 150 173 7,000  Level San Juan Center
Fri 05:46:26 PM 18.0167 -66.4333 251° West 150 173 7,000  Level San Juan Center
Fri 05:47:27 PM 18.0000 -66.4833 242° Southwest 150 173 7,000 -198 Level San Juan Center
Fri 05:48:27 PM 17.9833 -66.5167 128° Southeast 160 184 6,600 -523 Descending San Juan Center
Fri 05:51:28 PM 17.9333 -66.4500 180° South 110 127 4,900 -521 Descending San Juan Center
Fri 05:52:29 PM 17.9000 -66.4500 44° Northeast 120 138 4,500 -496 Descending San Juan Center
Fri 05:53:29 PM 17.9167 -66.4333 335° Northwest 150 173 3,900 -500 Descending San Juan Center
Fri 05:54:29 PM 17.9500 -66.4500 335° Northwest 140 161 3,500 -400 Descending San Juan Center

Login

Don't have an account? Register now (free) for customized features, flight alerts, and more!